Terminal Aerodrome Forecast
Issued by NWS Sterling, VA

Current Version | Previous Version | Graphics & Text | Print | Product List | Glossary On
Versions: 1 2 3 4 5 6 7 8 9 10 11 12 13 14 15 16 17 18 19 20 21 22 23 24 25 26 27
000
FTUS41 KLWX 312040 AAA
TAFDCA
TAF AMD
KDCA 312040Z 3121/0118 18010KT P6SM BKN050
     FM010000 16007KT P6SM VCTS BKN050CB
     FM010400 16006KT P6SM BKN050
     FM011600 21007KT P6SM SHRA BKN050=

USA.gov is the U.S. government's official web portal to all federal, state and local government web resources and services.